Diego Garcia, British Indian Ocean

11:10 PM IOT on October 31, 2014 (GMT +0600)
Diego Garcia Navy | Change Station
CLOSE
Current Station
Airport
Location: Diego Garcia,
Elevation: 10 ft
Nearby Weather Stations

Elev 10 ft 7.31 °S, 72.41 °E | Updated 15 minutes ago

Partly Cloudy
Partly Cloudy
82 °F
Feels Like 89 °F
N
0
Wind Variable Wind from North

Today
High -- | Low -- °F
--% Chance of Precip.
Yesterday
High -- | Low -- °F
Precip. -- in
6:43 AM 7:04 PM
First Quarter, 57% visible
Pressure 29.88 in
Visibility 6.2 miles
Clouds Few 2000 ft
Heat Index 89 °F
Dew Point 76 °F
Humidity 83%
Rainfall 0.00 in
Snow Depth Not available.
UV 0 out of 12
Pollen Not available.
Air Quality Not available.
Flu Activity Not available.
METAR FJDG 311655Z 00000KT 9999 FEW020 28/25 A2989 RMK SLP119 T02770245

More Conditions Fewer Conditions

Pressure 29.88 in
Visibility 6.2 miles
Clouds Few 2000 ft
Heat Index 89 °F
Dew Point 76 °F
Humidity 83%
Rainfall 0.00 in
Snow Depth Not available.
UV 0 out of 12
Pollen Not available.
Air Quality Not available.
Flu Activity Not available.
METAR FJDG 311655Z 00000KT 9999 FEW020 28/25 A2989 RMK SLP119 T02770245

More Conditions Fewer Conditions

10-Day Weather Forecast

Almanac

Astronomy

Oct. 31, 2014 Rise Set
Actual Time
Civil Twilight
Nautical Twilight
Astronomical Twilight
Moon
Length of Visible Light
Length of Day
Tomorrow will be .
, % of the Moon is Illuminated

Today's Extremes

Country Highs Country Lows

Community

WunderPhotos

Upload Photos

1,766,668 photos uploaded!

WunderBlogs® & News

Nearby

Air Quality

  Air Quality AQ Index Pollutant
Not available.

Snow Depth

Station Depth Elevation

Earthquake Activity

City Distance Mag. Time & Date
Minimum magnitude displayed is 2.5.

Coastal Water Temperatures

Place Temperature

Nearby Weather Stations